sensor_id;sensor_type;location;lat;lon;timestamp;P1;durP1;ratioP1;P2;durP2;ratioP2
47912;SDS011;33676;51.006;17.180;2023-05-10T00:02:19;6.30;;;5.70;;
47912;SDS011;33676;51.006;17.180;2023-05-10T00:04:48;6.60;;;5.90;;
47912;SDS011;33676;51.006;17.180;2023-05-10T00:07:16;9.50;;;5.70;;
47912;SDS011;33676;51.006;17.180;2023-05-10T00:09:48;7.40;;;5.50;;
47912;SDS011;33676;51.006;17.180;2023-05-10T00:12:16;7.00;;;6.10;;
47912;SDS011;33676;51.006;17.180;2023-05-10T00:14:45;6.30;;;5.50;;
47912;SDS011;33676;51.006;17.180;2023-05-10T00:17:13;9.10;;;6.90;;
47912;SDS011;33676;51.006;17.180;2023-05-10T00:19:42;8.50;;;6.40;;
47912;SDS011;33676;51.006;17.180;2023-05-10T00:22:10;8.90;;;6.00;;
47912;SDS011;33676;51.006;17.180;2023-05-10T00:24:39;7.30;;;6.60;;
47912;SDS011;33676;51.006;17.180;2023-05-10T00:27:07;6.50;;;5.90;;
47912;SDS011;33676;51.006;17.180;2023-05-10T00:29:35;9.40;;;6.40;;
47912;SDS011;33676;51.006;17.180;2023-05-10T00:32:04;8.60;;;6.50;;
47912;SDS011;33676;51.006;17.180;2023-05-10T00:34:33;7.10;;;6.40;;
47912;SDS011;33676;51.006;17.180;2023-05-10T00:37:01;8.10;;;6.70;;
47912;SDS011;33676;51.006;17.180;2023-05-10T00:39:30;10.90;;;6.60;;
47912;SDS011;33676;51.006;17.180;2023-05-10T00:41:59;7.90;;;7.10;;
47912;SDS011;33676;51.006;17.180;2023-05-10T00:44:28;7.10;;;6.40;;
47912;SDS011;33676;51.006;17.180;2023-05-10T00:46:57;8.00;;;6.90;;
47912;SDS011;33676;51.006;17.180;2023-05-10T00:49:26;7.50;;;6.70;;
47912;SDS011;33676;51.006;17.180;2023-05-10T00:51:55;7.40;;;6.70;;
47912;SDS011;33676;51.006;17.180;2023-05-10T00:54:24;9.10;;;7.00;;
47912;SDS011;33676;51.006;17.180;2023-05-10T00:56:52;8.90;;;6.30;;
47912;SDS011;33676;51.006;17.180;2023-05-10T00:59:21;10.30;;;6.40;;
47912;SDS011;33676;51.006;17.180;2023-05-10T01:01:49;6.40;;;5.80;;
47912;SDS011;33676;51.006;17.180;2023-05-10T01:04:19;7.50;;;6.80;;
47912;SDS011;33676;51.006;17.180;2023-05-10T01:06:53;7.00;;;6.30;;
47912;SDS011;33676;51.006;17.180;2023-05-10T01:09:22;8.90;;;6.80;;
47912;SDS011;33676;51.006;17.180;2023-05-10T01:11:53;10.50;;;7.30;;
47912;SDS011;33676;51.006;17.180;2023-05-10T01:14:22;7.90;;;6.20;;
47912;SDS011;33676;51.006;17.180;2023-05-10T01:16:51;7.80;;;7.00;;
47912;SDS011;33676;51.006;17.180;2023-05-10T01:19:28;7.60;;;6.80;;
47912;SDS011;33676;51.006;17.180;2023-05-10T01:24:58;7.90;;;7.00;;
47912;SDS011;33676;51.006;17.180;2023-05-10T01:33:26;10.30;;;7.80;;
47912;SDS011;33676;51.006;17.180;2023-05-10T01:36:02;7.50;;;6.40;;
47912;SDS011;33676;51.006;17.180;2023-05-10T01:41:53;8.70;;;6.30;;
47912;SDS011;33676;51.006;17.180;2023-05-10T01:45:02;11.70;;;6.20;;
47912;SDS011;33676;51.006;17.180;2023-05-10T01:47:46;7.50;;;6.30;;
47912;SDS011;33676;51.006;17.180;2023-05-10T01:50:24;8.30;;;6.80;;
47912;SDS011;33676;51.006;17.180;2023-05-10T01:52:58;10.00;;;6.80;;
47912;SDS011;33676;51.006;17.180;2023-05-10T01:55:33;10.00;;;7.90;;
47912;SDS011;33676;51.006;17.180;2023-05-10T01:58:09;10.50;;;7.80;;
47912;SDS011;33676;51.006;17.180;2023-05-10T02:00:43;12.00;;;7.10;;
47912;SDS011;33676;51.006;17.180;2023-05-10T02:03:14;10.90;;;7.80;;
47912;SDS011;33676;51.006;17.180;2023-05-10T02:05:46;8.30;;;6.80;;
47912;SDS011;33676;51.006;17.180;2023-05-10T02:08:17;8.00;;;6.60;;
47912;SDS011;33676;51.006;17.180;2023-05-10T02:10:47;9.20;;;6.70;;
47912;SDS011;33676;51.006;17.180;2023-05-10T02:13:18;8.40;;;6.70;;
47912;SDS011;33676;51.006;17.180;2023-05-10T02:15:48;11.10;;;7.40;;
47912;SDS011;33676;51.006;17.180;2023-05-10T02:22:48;8.80;;;7.80;;
47912;SDS011;33676;51.006;17.180;2023-05-10T02:25:19;8.70;;;6.80;;
47912;SDS011;33676;51.006;17.180;2023-05-10T02:27:50;8.40;;;6.70;;
47912;SDS011;33676;51.006;17.180;2023-05-10T02:30:22;10.10;;;7.10;;
47912;SDS011;33676;51.006;17.180;2023-05-10T02:32:51;9.80;;;7.00;;
47912;SDS011;33676;51.006;17.180;2023-05-10T02:35:20;8.80;;;7.70;;
47912;SDS011;33676;51.006;17.180;2023-05-10T02:37:51;7.90;;;6.50;;
47912;SDS011;33676;51.006;17.180;2023-05-10T02:40:21;9.10;;;6.70;;
47912;SDS011;33676;51.006;17.180;2023-05-10T02:42:56;10.70;;;6.80;;
47912;SDS011;33676;51.006;17.180;2023-05-10T02:45:30;8.90;;;6.80;;
47912;SDS011;33676;51.006;17.180;2023-05-10T02:48:00;8.70;;;6.20;;
47912;SDS011;33676;51.006;17.180;2023-05-10T02:50:30;12.90;;;7.30;;
47912;SDS011;33676;51.006;17.180;2023-05-10T02:53:04;6.40;;;5.90;;
47912;SDS011;33676;51.006;17.180;2023-05-10T02:55:39;8.80;;;7.40;;
47912;SDS011;33676;51.006;17.180;2023-05-10T02:58:09;8.50;;;7.60;;
47912;SDS011;33676;51.006;17.180;2023-05-10T03:00:38;9.80;;;6.00;;
47912;SDS011;33676;51.006;17.180;2023-05-10T03:03:06;7.60;;;6.50;;
47912;SDS011;33676;51.006;17.180;2023-05-10T03:05:35;9.10;;;7.10;;
47912;SDS011;33676;51.006;17.180;2023-05-10T03:08:04;12.50;;;7.90;;
47912;SDS011;33676;51.006;17.180;2023-05-10T03:10:33;10.10;;;7.80;;
47912;SDS011;33676;51.006;17.180;2023-05-10T03:16:15;9.90;;;7.80;;
47912;SDS011;33676;51.006;17.180;2023-05-10T03:19:06;9.80;;;7.40;;
47912;SDS011;33676;51.006;17.180;2023-05-10T03:21:42;8.60;;;7.50;;
47912;SDS011;33676;51.006;17.180;2023-05-10T03:26:44;7.70;;;7.00;;
47912;SDS011;33676;51.006;17.180;2023-05-10T03:29:13;9.20;;;7.10;;
47912;SDS011;33676;51.006;17.180;2023-05-10T03:31:43;9.60;;;7.00;;
47912;SDS011;33676;51.006;17.180;2023-05-10T03:34:11;8.20;;;7.20;;
47912;SDS011;33676;51.006;17.180;2023-05-10T03:36:39;8.40;;;6.10;;
47912;SDS011;33676;51.006;17.180;2023-05-10T03:39:08;7.80;;;6.90;;
47912;SDS011;33676;51.006;17.180;2023-05-10T03:41:37;22.70;;;7.70;;
47912;SDS011;33676;51.006;17.180;2023-05-10T03:44:05;7.90;;;7.20;;
47912;SDS011;33676;51.006;17.180;2023-05-10T03:46:33;12.50;;;6.90;;
47912;SDS011;33676;51.006;17.180;2023-05-10T03:49:02;9.40;;;7.90;;
47912;SDS011;33676;51.006;17.180;2023-05-10T03:51:30;9.00;;;7.70;;
47912;SDS011;33676;51.006;17.180;2023-05-10T03:53:59;10.40;;;8.40;;
47912;SDS011;33676;51.006;17.180;2023-05-10T03:56:27;8.30;;;7.50;;
47912;SDS011;33676;51.006;17.180;2023-05-10T03:58:56;10.00;;;8.50;;
47912;SDS011;33676;51.006;17.180;2023-05-10T04:01:24;9.00;;;7.10;;
47912;SDS011;33676;51.006;17.180;2023-05-10T04:03:53;8.70;;;7.30;;
47912;SDS011;33676;51.006;17.180;2023-05-10T04:06:21;10.00;;;8.10;;
47912;SDS011;33676;51.006;17.180;2023-05-10T04:08:50;9.30;;;7.90;;
47912;SDS011;33676;51.006;17.180;2023-05-10T04:11:18;9.60;;;8.00;;
47912;SDS011;33676;51.006;17.180;2023-05-10T04:13:50;9.90;;;7.60;;
47912;SDS011;33676;51.006;17.180;2023-05-10T04:16:19;9.10;;;6.90;;
47912;SDS011;33676;51.006;17.180;2023-05-10T04:18:47;9.00;;;7.60;;
47912;SDS011;33676;51.006;17.180;2023-05-10T04:21:16;8.40;;;7.60;;
47912;SDS011;33676;51.006;17.180;2023-05-10T04:23:44;8.10;;;7.30;;
47912;SDS011;33676;51.006;17.180;2023-05-10T04:26:13;8.70;;;6.80;;
47912;SDS011;33676;51.006;17.180;2023-05-10T04:28:41;7.90;;;7.00;;
47912;SDS011;33676;51.006;17.180;2023-05-10T04:31:10;9.50;;;8.00;;
47912;SDS011;33676;51.006;17.180;2023-05-10T04:33:38;10.50;;;7.30;;
47912;SDS011;33676;51.006;17.180;2023-05-10T04:36:07;9.30;;;7.70;;
47912;SDS011;33676;51.006;17.180;2023-05-10T04:38:35;10.70;;;6.50;;
47912;SDS011;33676;51.006;17.180;2023-05-10T04:41:08;8.90;;;7.20;;
47912;SDS011;33676;51.006;17.180;2023-05-10T04:43:37;9.00;;;6.50;;
47912;SDS011;33676;51.006;17.180;2023-05-10T04:46:06;11.10;;;7.90;;
47912;SDS011;33676;51.006;17.180;2023-05-10T04:48:35;14.70;;;8.30;;
47912;SDS011;33676;51.006;17.180;2023-05-10T04:51:04;7.40;;;6.70;;
47912;SDS011;33676;51.006;17.180;2023-05-10T04:53:33;8.50;;;6.90;;
47912;SDS011;33676;51.006;17.180;2023-05-10T04:56:01;9.30;;;6.90;;
47912;SDS011;33676;51.006;17.180;2023-05-10T04:58:30;6.90;;;6.10;;
47912;SDS011;33676;51.006;17.180;2023-05-10T05:01:05;7.60;;;6.90;;
47912;SDS011;33676;51.006;17.180;2023-05-10T05:03:38;12.70;;;7.70;;
47912;SDS011;33676;51.006;17.180;2023-05-10T05:06:07;10.90;;;6.30;;
47912;SDS011;33676;51.006;17.180;2023-05-10T05:08:35;9.00;;;6.60;;
47912;SDS011;33676;51.006;17.180;2023-05-10T05:11:04;9.10;;;6.70;;
47912;SDS011;33676;51.006;17.180;2023-05-10T05:13:32;8.10;;;7.20;;
47912;SDS011;33676;51.006;17.180;2023-05-10T05:16:02;9.00;;;7.10;;
47912;SDS011;33676;51.006;17.180;2023-05-10T05:18:31;9.40;;;7.50;;
47912;SDS011;33676;51.006;17.180;2023-05-10T05:20:59;12.00;;;8.20;;
47912;SDS011;33676;51.006;17.180;2023-05-10T05:23:28;9.20;;;7.30;;
47912;SDS011;33676;51.006;17.180;2023-05-10T05:25:56;8.90;;;7.10;;
47912;SDS011;33676;51.006;17.180;2023-05-10T05:28:25;9.60;;;8.00;;
47912;SDS011;33676;51.006;17.180;2023-05-10T05:30:53;7.90;;;6.80;;
47912;SDS011;33676;51.006;17.180;2023-05-10T05:33:21;11.30;;;6.70;;
47912;SDS011;33676;51.006;17.180;2023-05-10T05:35:50;5.70;;;5.20;;
47912;SDS011;33676;51.006;17.180;2023-05-10T05:38:18;11.70;;;7.80;;
47912;SDS011;33676;51.006;17.180;2023-05-10T05:40:47;7.30;;;6.60;;
47912;SDS011;33676;51.006;17.180;2023-05-10T05:43:15;6.60;;;6.00;;
47912;SDS011;33676;51.006;17.180;2023-05-10T05:45:44;30.90;;;9.10;;
47912;SDS011;33676;51.006;17.180;2023-05-10T05:48:13;10.00;;;6.90;;
47912;SDS011;33676;51.006;17.180;2023-05-10T06:02:50;6.60;;;6.00;;
47912;SDS011;33676;51.006;17.180;2023-05-10T06:05:19;16.20;;;6.90;;
47912;SDS011;33676;51.006;17.180;2023-05-10T06:07:48;7.90;;;5.80;;
47912;SDS011;33676;51.006;17.180;2023-05-10T06:13:15;5.80;;;5.30;;
47912;SDS011;33676;51.006;17.180;2023-05-10T06:15:44;8.20;;;6.50;;
47912;SDS011;33676;51.006;17.180;2023-05-10T06:18:13;6.60;;;6.10;;
47912;SDS011;33676;51.006;17.180;2023-05-10T06:20:41;6.30;;;5.40;;
47912;SDS011;33676;51.006;17.180;2023-05-10T06:23:11;11.00;;;7.10;;
47912;SDS011;33676;51.006;17.180;2023-05-10T06:26:04;6.50;;;5.90;;
47912;SDS011;33676;51.006;17.180;2023-05-10T06:28:33;9.70;;;6.40;;
47912;SDS011;33676;51.006;17.180;2023-05-10T06:31:01;6.80;;;6.10;;
47912;SDS011;33676;51.006;17.180;2023-05-10T06:33:30;6.80;;;6.20;;
47912;SDS011;33676;51.006;17.180;2023-05-10T06:35:59;6.40;;;5.70;;
47912;SDS011;33676;51.006;17.180;2023-05-10T06:38:27;7.30;;;5.30;;
47912;SDS011;33676;51.006;17.180;2023-05-10T06:40:56;6.50;;;5.90;;
47912;SDS011;33676;51.006;17.180;2023-05-10T06:43:25;8.00;;;5.60;;
47912;SDS011;33676;51.006;17.180;2023-05-10T06:45:54;6.20;;;5.50;;
47912;SDS011;33676;51.006;17.180;2023-05-10T06:48:22;7.40;;;5.40;;
47912;SDS011;33676;51.006;17.180;2023-05-10T06:50:51;5.10;;;4.70;;
47912;SDS011;33676;51.006;17.180;2023-05-10T06:53:19;7.00;;;5.80;;
47912;SDS011;33676;51.006;17.180;2023-05-10T06:55:49;8.70;;;6.30;;
47912;SDS011;33676;51.006;17.180;2023-05-10T07:01:12;5.20;;;4.70;;
47912;SDS011;33676;51.006;17.180;2023-05-10T07:03:40;6.20;;;5.30;;
47912;SDS011;33676;51.006;17.180;2023-05-10T07:06:09;9.20;;;6.20;;
47912;SDS011;33676;51.006;17.180;2023-05-10T07:08:52;5.40;;;4.90;;
47912;SDS011;33676;51.006;17.180;2023-05-10T07:11:21;6.50;;;5.40;;
47912;SDS011;33676;51.006;17.180;2023-05-10T07:13:49;8.50;;;5.70;;
47912;SDS011;33676;51.006;17.180;2023-05-10T07:16:18;6.90;;;5.20;;
47912;SDS011;33676;51.006;17.180;2023-05-10T07:18:46;7.00;;;6.10;;
47912;SDS011;33676;51.006;17.180;2023-05-10T07:21:15;6.80;;;5.20;;
47912;SDS011;33676;51.006;17.180;2023-05-10T07:23:44;8.20;;;5.40;;
47912;SDS011;33676;51.006;17.180;2023-05-10T07:26:12;5.50;;;4.90;;
47912;SDS011;33676;51.006;17.180;2023-05-10T07:28:41;4.70;;;4.30;;
47912;SDS011;33676;51.006;17.180;2023-05-10T07:31:09;5.00;;;4.50;;
47912;SDS011;33676;51.006;17.180;2023-05-10T07:35:04;6.20;;;4.80;;
47912;SDS011;33676;51.006;17.180;2023-05-10T07:37:33;4.40;;;4.00;;
47912;SDS011;33676;51.006;17.180;2023-05-10T07:40:02;4.20;;;3.80;;
47912;SDS011;33676;51.006;17.180;2023-05-10T07:42:30;6.40;;;3.80;;
47912;SDS011;33676;51.006;17.180;2023-05-10T07:44:59;7.90;;;4.40;;
47912;SDS011;33676;51.006;17.180;2023-05-10T07:47:28;4.70;;;4.20;;
47912;SDS011;33676;51.006;17.180;2023-05-10T07:49:56;6.40;;;4.70;;
47912;SDS011;33676;51.006;17.180;2023-05-10T07:52:25;4.40;;;3.90;;
47912;SDS011;33676;51.006;17.180;2023-05-10T07:54:54;5.50;;;4.40;;
47912;SDS011;33676;51.006;17.180;2023-05-10T07:57:25;4.20;;;3.80;;
47912;SDS011;33676;51.006;17.180;2023-05-10T07:59:53;5.50;;;4.20;;
47912;SDS011;33676;51.006;17.180;2023-05-10T08:02:21;4.10;;;3.80;;
47912;SDS011;33676;51.006;17.180;2023-05-10T08:04:50;4.00;;;3.00;;
47912;SDS011;33676;51.006;17.180;2023-05-10T08:07:19;4.40;;;2.90;;
47912;SDS011;33676;51.006;17.180;2023-05-10T08:09:47;3.80;;;3.40;;
47912;SDS011;33676;51.006;17.180;2023-05-10T08:12:16;3.60;;;3.20;;
47912;SDS011;33676;51.006;17.180;2023-05-10T08:14:44;5.50;;;3.50;;
47912;SDS011;33676;51.006;17.180;2023-05-10T08:17:13;4.10;;;3.60;;
47912;SDS011;33676;51.006;17.180;2023-05-10T08:19:41;3.30;;;3.00;;
47912;SDS011;33676;51.006;17.180;2023-05-10T08:22:10;5.70;;;3.60;;
47912;SDS011;33676;51.006;17.180;2023-05-10T08:24:38;4.40;;;4.00;;
47912;SDS011;33676;51.006;17.180;2023-05-10T08:27:08;3.60;;;3.20;;
47912;SDS011;33676;51.006;17.180;2023-05-10T08:29:37;3.50;;;3.20;;
47912;SDS011;33676;51.006;17.180;2023-05-10T08:32:17;3.80;;;3.40;;
47912;SDS011;33676;51.006;17.180;2023-05-10T08:34:46;4.10;;;3.60;;
47912;SDS011;33676;51.006;17.180;2023-05-10T08:37:14;3.30;;;3.00;;
47912;SDS011;33676;51.006;17.180;2023-05-10T08:39:42;7.60;;;5.20;;
47912;SDS011;33676;51.006;17.180;2023-05-10T08:42:11;4.00;;;3.60;;
47912;SDS011;33676;51.006;17.180;2023-05-10T08:44:40;3.80;;;3.10;;
47912;SDS011;33676;51.006;17.180;2023-05-10T08:47:10;3.10;;;2.70;;
47912;SDS011;33676;51.006;17.180;2023-05-10T08:49:39;4.30;;;2.90;;
47912;SDS011;33676;51.006;17.180;2023-05-10T08:52:09;3.60;;;2.90;;
47912;SDS011;33676;51.006;17.180;2023-05-10T08:54:41;3.60;;;3.30;;
47912;SDS011;33676;51.006;17.180;2023-05-10T08:57:10;3.80;;;3.50;;
47912;SDS011;33676;51.006;17.180;2023-05-10T08:59:39;3.50;;;3.20;;
47912;SDS011;33676;51.006;17.180;2023-05-10T09:02:09;6.40;;;3.30;;
47912;SDS011;33676;51.006;17.180;2023-05-10T09:04:39;3.70;;;3.40;;
47912;SDS011;33676;51.006;17.180;2023-05-10T09:07:08;3.40;;;3.10;;
47912;SDS011;33676;51.006;17.180;2023-05-10T09:09:37;3.20;;;2.90;;
47912;SDS011;33676;51.006;17.180;2023-05-10T09:12:05;2.60;;;2.50;;
47912;SDS011;33676;51.006;17.180;2023-05-10T09:14:35;3.20;;;2.90;;
47912;SDS011;33676;51.006;17.180;2023-05-10T09:17:04;3.60;;;3.40;;
47912;SDS011;33676;51.006;17.180;2023-05-10T09:19:32;3.80;;;3.20;;
47912;SDS011;33676;51.006;17.180;2023-05-10T09:22:01;3.10;;;2.50;;
47912;SDS011;33676;51.006;17.180;2023-05-10T09:24:30;3.10;;;2.90;;
47912;SDS011;33676;51.006;17.180;2023-05-10T09:26:59;5.10;;;3.40;;
47912;SDS011;33676;51.006;17.180;2023-05-10T09:29:39;3.30;;;3.00;;
47912;SDS011;33676;51.006;17.180;2023-05-10T09:32:08;3.60;;;3.30;;
47912;SDS011;33676;51.006;17.180;2023-05-10T09:34:37;5.80;;;3.60;;
47912;SDS011;33676;51.006;17.180;2023-05-10T09:37:08;3.20;;;3.00;;
47912;SDS011;33676;51.006;17.180;2023-05-10T09:39:37;3.50;;;3.30;;
47912;SDS011;33676;51.006;17.180;2023-05-10T09:42:07;5.60;;;3.20;;
47912;SDS011;33676;51.006;17.180;2023-05-10T09:44:37;4.40;;;3.40;;
47912;SDS011;33676;51.006;17.180;2023-05-10T09:47:06;5.10;;;2.70;;
47912;SDS011;33676;51.006;17.180;2023-05-10T09:49:35;3.00;;;2.70;;
47912;SDS011;33676;51.006;17.180;2023-05-10T09:52:05;4.60;;;3.20;;
47912;SDS011;33676;51.006;17.180;2023-05-10T09:54:35;3.50;;;3.20;;
47912;SDS011;33676;51.006;17.180;2023-05-10T09:57:04;2.60;;;2.50;;
47912;SDS011;33676;51.006;17.180;2023-05-10T09:59:33;3.00;;;2.80;;
47912;SDS011;33676;51.006;17.180;2023-05-10T10:02:03;3.60;;;3.40;;
47912;SDS011;33676;51.006;17.180;2023-05-10T10:04:31;5.30;;;4.90;;
47912;SDS011;33676;51.006;17.180;2023-05-10T10:07:07;3.50;;;3.00;;
47912;SDS011;33676;51.006;17.180;2023-05-10T10:09:35;3.40;;;3.00;;
47912;SDS011;33676;51.006;17.180;2023-05-10T10:12:04;3.50;;;3.30;;
47912;SDS011;33676;51.006;17.180;2023-05-10T10:14:33;8.70;;;6.30;;
47912;SDS011;33676;51.006;17.180;2023-05-10T10:17:02;3.50;;;3.20;;
47912;SDS011;33676;51.006;17.180;2023-05-10T10:19:36;6.30;;;3.50;;
47912;SDS011;33676;51.006;17.180;2023-05-10T10:22:05;2.90;;;2.70;;
47912;SDS011;33676;51.006;17.180;2023-05-10T10:36:27;3.00;;;2.80;;
47912;SDS011;33676;51.006;17.180;2023-05-10T10:39:00;8.60;;;5.20;;
47912;SDS011;33676;51.006;17.180;2023-05-10T10:52:38;2.80;;;2.40;;
47912;SDS011;33676;51.006;17.180;2023-05-10T10:55:12;3.60;;;2.50;;
47912;SDS011;33676;51.006;17.180;2023-05-10T10:57:50;2.50;;;2.40;;
47912;SDS011;33676;51.006;17.180;2023-05-10T11:00:36;7.30;;;2.90;;
47912;SDS011;33676;51.006;17.180;2023-05-10T11:03:08;2.40;;;2.30;;
47912;SDS011;33676;51.006;17.180;2023-05-10T11:05:42;4.10;;;1.90;;
47912;SDS011;33676;51.006;17.180;2023-05-10T11:13:30;4.50;;;4.10;;
47912;SDS011;33676;51.006;17.180;2023-05-10T11:16:10;2.40;;;2.20;;
47912;SDS011;33676;51.006;17.180;2023-05-10T11:18:51;3.00;;;2.80;;
47912;SDS011;33676;51.006;17.180;2023-05-10T11:22:11;4.60;;;2.00;;
47912;SDS011;33676;51.006;17.180;2023-05-10T11:24:56;2.40;;;2.20;;
47912;SDS011;33676;51.006;17.180;2023-05-10T11:27:29;2.80;;;2.10;;
47912;SDS011;33676;51.006;17.180;2023-05-10T11:29:57;2.60;;;2.40;;
47912;SDS011;33676;51.006;17.180;2023-05-10T11:32:25;5.10;;;2.20;;
47912;SDS011;33676;51.006;17.180;2023-05-10T11:34:54;2.90;;;2.40;;
47912;SDS011;33676;51.006;17.180;2023-05-10T11:37:28;2.30;;;2.00;;
47912;SDS011;33676;51.006;17.180;2023-05-10T11:40:00;2.60;;;2.50;;
47912;SDS011;33676;51.006;17.180;2023-05-10T11:42:28;6.90;;;2.30;;
47912;SDS011;33676;51.006;17.180;2023-05-10T11:44:58;2.60;;;2.50;;
47912;SDS011;33676;51.006;17.180;2023-05-10T11:47:29;8.00;;;2.70;;
47912;SDS011;33676;51.006;17.180;2023-05-10T11:49:57;2.70;;;1.70;;
47912;SDS011;33676;51.006;17.180;2023-05-10T11:52:27;2.40;;;2.30;;
47912;SDS011;33676;51.006;17.180;2023-05-10T11:54:55;4.40;;;2.10;;
47912;SDS011;33676;51.006;17.180;2023-05-10T11:57:26;2.90;;;1.80;;
47912;SDS011;33676;51.006;17.180;2023-05-10T11:59:56;2.00;;;2.00;;
47912;SDS011;33676;51.006;17.180;2023-05-10T12:02:25;3.80;;;2.80;;
47912;SDS011;33676;51.006;17.180;2023-05-10T12:04:54;2.40;;;2.20;;
47912;SDS011;33676;51.006;17.180;2023-05-10T12:07:26;2.10;;;1.90;;
47912;SDS011;33676;51.006;17.180;2023-05-10T12:10:07;2.30;;;2.00;;
47912;SDS011;33676;51.006;17.180;2023-05-10T12:12:38;2.20;;;2.00;;
47912;SDS011;33676;51.006;17.180;2023-05-10T12:15:17;2.20;;;2.00;;
47912;SDS011;33676;51.006;17.180;2023-05-10T12:17:48;2.20;;;2.10;;
47912;SDS011;33676;51.006;17.180;2023-05-10T12:20:20;2.60;;;1.90;;
47912;SDS011;33676;51.006;17.180;2023-05-10T12:22:54;4.10;;;2.30;;
47912;SDS011;33676;51.006;17.180;2023-05-10T12:25:32;1.60;;;1.60;;
47912;SDS011;33676;51.006;17.180;2023-05-10T12:28:06;3.30;;;2.30;;
47912;SDS011;33676;51.006;17.180;2023-05-10T12:30:36;3.50;;;1.80;;
47912;SDS011;33676;51.006;17.180;2023-05-10T12:33:11;5.00;;;2.60;;
47912;SDS011;33676;51.006;17.180;2023-05-10T12:35:53;3.40;;;1.90;;
47912;SDS011;33676;51.006;17.180;2023-05-10T12:38:36;2.20;;;2.00;;
47912;SDS011;33676;51.006;17.180;2023-05-10T12:41:08;1.90;;;1.80;;
47912;SDS011;33676;51.006;17.180;2023-05-10T12:43:38;3.20;;;3.10;;
47912;SDS011;33676;51.006;17.180;2023-05-10T12:46:12;1.70;;;1.70;;
47912;SDS011;33676;51.006;17.180;2023-05-10T12:51:14;1.80;;;1.80;;
47912;SDS011;33676;51.006;17.180;2023-05-10T12:53:45;2.60;;;2.10;;
47912;SDS011;33676;51.006;17.180;2023-05-10T12:56:17;3.20;;;2.70;;
47912;SDS011;33676;51.006;17.180;2023-05-10T12:58:45;2.50;;;1.80;;
47912;SDS011;33676;51.006;17.180;2023-05-10T13:01:16;1.90;;;1.80;;
47912;SDS011;33676;51.006;17.180;2023-05-10T13:03:45;2.70;;;1.80;;
47912;SDS011;33676;51.006;17.180;2023-05-10T13:06:13;1.50;;;1.50;;
47912;SDS011;33676;51.006;17.180;2023-05-10T13:08:42;1.90;;;1.60;;
47912;SDS011;33676;51.006;17.180;2023-05-10T13:11:16;1.60;;;1.60;;
47912;SDS011;33676;51.006;17.180;2023-05-10T13:13:45;2.00;;;1.50;;
47912;SDS011;33676;51.006;17.180;2023-05-10T13:16:13;1.60;;;1.40;;
47912;SDS011;33676;51.006;17.180;2023-05-10T13:18:42;2.20;;;1.60;;
47912;SDS011;33676;51.006;17.180;2023-05-10T13:21:10;2.00;;;1.90;;
47912;SDS011;33676;51.006;17.180;2023-05-10T13:23:39;2.20;;;1.80;;
47912;SDS011;33676;51.006;17.180;2023-05-10T13:26:07;8.70;;;6.40;;
47912;SDS011;33676;51.006;17.180;2023-05-10T13:28:36;14.60;;;10.30;;
47912;SDS011;33676;51.006;17.180;2023-05-10T13:31:07;2.70;;;1.90;;
47912;SDS011;33676;51.006;17.180;2023-05-10T13:33:35;1.20;;;1.20;;
47912;SDS011;33676;51.006;17.180;2023-05-10T13:36:04;3.10;;;2.50;;
47912;SDS011;33676;51.006;17.180;2023-05-10T13:38:34;9.40;;;5.50;;
47912;SDS011;33676;51.006;17.180;2023-05-10T13:41:02;3.00;;;2.60;;
47912;SDS011;33676;51.006;17.180;2023-05-10T13:43:31;5.70;;;5.20;;
47912;SDS011;33676;51.006;17.180;2023-05-10T13:46:00;10.30;;;9.20;;
47912;SDS011;33676;51.006;17.180;2023-05-10T13:48:28;8.70;;;2.40;;
47912;SDS011;33676;51.006;17.180;2023-05-10T13:50:57;1.70;;;1.60;;
47912;SDS011;33676;51.006;17.180;2023-05-10T13:53:25;1.80;;;1.70;;
47912;SDS011;33676;51.006;17.180;2023-05-10T13:55:53;2.10;;;1.70;;
47912;SDS011;33676;51.006;17.180;2023-05-10T13:58:22;2.60;;;2.40;;
47912;SDS011;33676;51.006;17.180;2023-05-10T14:00:54;2.40;;;2.30;;
47912;SDS011;33676;51.006;17.180;2023-05-10T14:03:22;2.90;;;1.60;;
47912;SDS011;33676;51.006;17.180;2023-05-10T14:05:50;2.10;;;1.30;;
47912;SDS011;33676;51.006;17.180;2023-05-10T14:08:19;2.30;;;1.40;;
47912;SDS011;33676;51.006;17.180;2023-05-10T14:10:49;1.70;;;1.60;;
47912;SDS011;33676;51.006;17.180;2023-05-10T14:13:19;1.30;;;1.30;;
47912;SDS011;33676;51.006;17.180;2023-05-10T14:15:48;1.40;;;1.40;;
47912;SDS011;33676;51.006;17.180;2023-05-10T14:18:16;1.70;;;1.10;;
47912;SDS011;33676;51.006;17.180;2023-05-10T14:20:45;1.30;;;1.30;;
47912;SDS011;33676;51.006;17.180;2023-05-10T14:23:14;1.10;;;1.10;;
47912;SDS011;33676;51.006;17.180;2023-05-10T14:25:42;2.40;;;1.20;;
47912;SDS011;33676;51.006;17.180;2023-05-10T14:28:11;1.50;;;1.30;;
47912;SDS011;33676;51.006;17.180;2023-05-10T14:30:40;1.30;;;1.30;;
47912;SDS011;33676;51.006;17.180;2023-05-10T14:33:09;1.60;;;1.50;;
47912;SDS011;33676;51.006;17.180;2023-05-10T14:35:38;2.70;;;1.50;;
47912;SDS011;33676;51.006;17.180;2023-05-10T14:38:07;1.40;;;1.30;;
47912;SDS011;33676;51.006;17.180;2023-05-10T14:40:35;1.50;;;1.40;;
47912;SDS011;33676;51.006;17.180;2023-05-10T14:43:03;1.90;;;1.30;;
47912;SDS011;33676;51.006;17.180;2023-05-10T14:45:33;1.50;;;1.30;;
47912;SDS011;33676;51.006;17.180;2023-05-10T14:48:01;3.10;;;2.10;;
47912;SDS011;33676;51.006;17.180;2023-05-10T14:50:34;2.30;;;1.90;;
47912;SDS011;33676;51.006;17.180;2023-05-10T14:53:04;1.50;;;1.40;;
47912;SDS011;33676;51.006;17.180;2023-05-10T14:55:33;1.30;;;1.30;;
47912;SDS011;33676;51.006;17.180;2023-05-10T14:58:10;1.90;;;1.70;;
47912;SDS011;33676;51.006;17.180;2023-05-10T15:00:41;1.50;;;1.40;;
47912;SDS011;33676;51.006;17.180;2023-05-10T15:03:10;1.90;;;1.80;;
47912;SDS011;33676;51.006;17.180;2023-05-10T15:05:39;1.90;;;1.80;;
47912;SDS011;33676;51.006;17.180;2023-05-10T15:08:07;1.40;;;1.40;;
47912;SDS011;33676;51.006;17.180;2023-05-10T15:10:37;1.30;;;1.30;;
47912;SDS011;33676;51.006;17.180;2023-05-10T15:13:05;2.00;;;1.80;;
47912;SDS011;33676;51.006;17.180;2023-05-10T15:15:34;1.50;;;1.50;;
47912;SDS011;33676;51.006;17.180;2023-05-10T15:18:02;3.10;;;1.50;;
47912;SDS011;33676;51.006;17.180;2023-05-10T15:20:31;2.10;;;1.50;;
47912;SDS011;33676;51.006;17.180;2023-05-10T15:23:00;1.60;;;1.50;;
47912;SDS011;33676;51.006;17.180;2023-05-10T15:25:29;1.40;;;1.40;;
47912;SDS011;33676;51.006;17.180;2023-05-10T15:27:57;1.60;;;1.50;;
47912;SDS011;33676;51.006;17.180;2023-05-10T15:30:26;1.50;;;1.40;;
47912;SDS011;33676;51.006;17.180;2023-05-10T15:32:55;2.50;;;1.60;;
47912;SDS011;33676;51.006;17.180;2023-05-10T15:35:25;3.00;;;2.00;;
47912;SDS011;33676;51.006;17.180;2023-05-10T15:37:54;1.60;;;1.60;;
47912;SDS011;33676;51.006;17.180;2023-05-10T15:40:22;1.70;;;1.60;;
47912;SDS011;33676;51.006;17.180;2023-05-10T15:42:51;2.20;;;1.60;;
47912;SDS011;33676;51.006;17.180;2023-05-10T15:45:19;1.80;;;1.70;;
47912;SDS011;33676;51.006;17.180;2023-05-10T15:47:48;2.20;;;2.10;;
47912;SDS011;33676;51.006;17.180;2023-05-10T15:50:16;8.30;;;7.60;;
47912;SDS011;33676;51.006;17.180;2023-05-10T15:52:44;1.30;;;1.30;;
47912;SDS011;33676;51.006;17.180;2023-05-10T15:55:13;1.20;;;1.20;;
47912;SDS011;33676;51.006;17.180;2023-05-10T15:57:42;1.20;;;1.20;;
47912;SDS011;33676;51.006;17.180;2023-05-10T16:00:12;1.70;;;1.60;;
47912;SDS011;33676;51.006;17.180;2023-05-10T16:02:41;1.80;;;1.70;;
47912;SDS011;33676;51.006;17.180;2023-05-10T16:05:10;1.90;;;1.60;;